Bookmark and Share
Track history (hours):
 

Ida

Last reported at 2014-Apr-17 22:32 UTC. Time now 2014-Apr-18 16:08 UTC.
Position N 55°57' E 016°24'.

Length 82 m; draft 3.7 m.

Type: Cargo ship. MMSI: 210319000.

NotesDate/timePositionNaut miles runAvg speedWind from/ knotsBaromVisibWave heightAir tempDewpointWater temp
2014-Apr-17 22:32N 55°57' E 016°24'10 7.7
2014-Apr-17 21:11N 55°52' E 016°08'29 7.8
2014-Apr-17 17:25N 55°38' E 015°23'7 7.5
2014-Apr-17 16:33N 55°34' E 015°13'7 7.4
2014-Apr-17 15:33N 55°31' E 015°01'7 7.2
2014-Apr-17 14:33N 55°27' E 014°50'8 7.6
2014-Apr-17 13:33N 55°23' E 014°39'8 8.0
2014-Apr-17 12:33N 55°17' E 014°30'8 7.9
2014-Apr-17 11:33N 55°11' E 014°20'7 7.2
2014-Apr-17 10:33N 55°10' E 014°08'7 7.4
2014-Apr-17 09:33N 55°11' E 013°55'9 7.3
2014-Apr-17 08:21N 55°12' E 013°39'6 7.7
2014-Apr-17 07:33N 55°12' E 013°29'8 7.8
2014-Apr-17 06:33N 55°13' E 013°15'8 7.7
2014-Apr-17 05:33N 55°14' E 013°01'7 7.3
2014-Apr-17 04:33N 55°16' E 012°49'7 6.7
2014-Apr-17 03:33N 55°19' E 012°38'7 7.1
2014-Apr-17 02:33N 55°26' E 012°40'7 6.7
2014-Apr-17 01:33N 55°32' E 012°42'6 5.9
2014-Apr-17 00:33N 55°38' E 012°42'6 6.0
2014-Apr-16 23:33N 55°44' E 012°41'7 6.6
2014-Apr-16 22:33N 55°51' E 012°41'7 6.7
2014-Apr-16 21:33N 55°57' E 012°38'6 6.3
2014-Apr-16 20:33N 56°04' E 012°38'8 8.0
2014-Apr-16 19:33N 56°08' E 012°26'8 7.7
2014-Apr-16 18:33N 56°13' E 012°15'8 7.6
2014-Apr-16 17:33N 56°18' E 012°04'7 7.4
2014-Apr-16 16:33N 56°25' E 012°00'8 7.7
2014-Apr-16 15:31N 56°33' E 011°58'7 7.6
2014-Apr-16 14:33N 56°40' E 011°55'8 7.5
2014-Apr-16 13:33N 56°47' E 011°51'8 7.4
2014-Apr-16 12:32N 56°54' E 011°46'8 7.5
2014-Apr-16 11:30N 57°01' E 011°42'7 7.4
2014-Apr-16 10:33N 57°08' E 011°37'8 7.8
2014-Apr-16 09:33N 57°15' E 011°33'8 8.2
2014-Apr-16 08:33N 57°23' E 011°28'8 8.0
2014-Apr-16 07:33N 57°31' E 011°23'8 7.9
2014-Apr-16 06:33N 57°38' E 011°19'8 8.0
2014-Apr-16 05:33N 57°46' E 011°15'8 7.7
2014-Apr-16 04:33N 57°54' E 011°12'8 7.8
2014-Apr-16 03:33N 58°01' E 011°09'7 7.5
2014-Apr-16 02:33N 58°08' E 011°05'8 7.6
2014-Apr-16 01:33N 58°16' E 011°01'9 7.9
2014-Apr-16 00:29N 58°24' E 010°57'8 8.4
2014-Apr-15 23:33N 58°31' E 010°54'38 1.4
2014-Apr-14 20:30N 59°09' E 010°46'2010.1
2014-Apr-14 18:30N 59°29' E 010°34'25 6.4
2014-Apr-14 14:31N 59°53' E 010°45'0 0.0
2014-Apr-14 13:31N 59°53' E 010°45'0 0.0
2014-Apr-13 22:22N 59°53' E 010°45'0 0.0
2014-Apr-13 21:22N 59°53' E 010°45'0 0.0
2014-Apr-13 20:25N 59°53' E 010°45'0 0.0
2014-Apr-13 19:25N 59°53' E 010°45'0 0.0
2014-Apr-13 18:25N 59°53' E 010°45'0 0.0
2014-Apr-13 17:25N 59°53' E 010°45'0 0.0
2014-Apr-13 16:25N 59°53' E 010°45'0 0.0
2014-Apr-13 15:28N 59°53' E 010°45'0 0.0
2014-Apr-13 14:33N 59°53' E 010°45'39 7.6
2014-Apr-13 09:24N 59°14' E 010°36'228 7.1
2014-Apr-12 01:20N 55°58' E 007°02'6 7.9
2014-Apr-12 00:33N 55°52' E 006°56'155 7.6
2014-Apr-11 04:09N 53°36' E 004°49'5 8.2
2014-Apr-11 03:33N 53°31' E 004°46'9 8.5
2014-Apr-11 02:33N 53°23' E 004°41'9 9.2
2014-Apr-11 01:33N 53°15' E 004°34'11 9.1
2014-Apr-11 00:19N 53°05' E 004°25'7 9.0
2014-Apr-10 23:33N 52°59' E 004°20'8 8.4
2014-Apr-10 22:33N 52°52' E 004°14'8 7.8
2014-Apr-10 21:33N 52°45' E 004°07'7 7.4
2014-Apr-10 20:33N 52°38' E 004°01'6 6.1
2014-Apr-10 19:33N 52°33' E 003°57'8 7.6
2014-Apr-10 18:33N 52°26' E 003°54'8 7.5
2014-Apr-10 17:30N 52°18' E 003°52'21 6.7
2014-Apr-10 14:19N 51°59' E 004°07'7 9.4
2014-Apr-10 13:32N 51°54' E 004°17'5 4.9
2014-Apr-10 12:31N 51°55' E 004°25'0 0.0
2014-Apr-10 11:25N 51°55' E 004°25'0 0.0
2014-Apr-10 10:31N 51°55' E 004°25'0 0.0
2014-Apr-10 09:28N 51°55' E 004°25'0 0.0
2014-Apr-10 08:13N 51°55' E 004°25'0 0.0
2014-Apr-10 07:31N 51°55' E 004°25'0 0.0
2014-Apr-10 06:32N 51°55' E 004°25'0 0.0
2014-Apr-10 01:19N 51°55' E 004°25'0 0.0
2014-Apr-10 00:25N 51°55' E 004°25'0 0.0
2014-Apr-09 23:31N 51°55' E 004°25'2 1.7
2014-Apr-09 22:33N 51°54' E 004°22'9 9.0
2014-Apr-09 21:32N 51°58' E 004°09'8 8.6
2014-Apr-09 20:33N 52°00' E 003°56'9 8.4
2014-Apr-09 19:33N 52°02' E 003°42'9 8.8
2014-Apr-09 18:33N 52°07' E 003°31'11 8.7
2014-Apr-09 17:17N 52°14' E 003°17'50 8.5
2014-Apr-09 11:25N 52°43' E 002°11'6 7.3
2014-Apr-09 10:33N 52°46' E 002°01'7 7.0
2014-Apr-09 09:33N 52°49' E 001°51'7 7.1
2014-Apr-09 08:33N 52°52' E 001°40'7 7.1
2014-Apr-09 07:33N 52°55' E 001°30'7 7.5
2014-Apr-09 06:33N 52°58' E 001°18'  

Dump ship's entire track history

sailing weather and tide predictions

Ida — C4CZ2 — position and weather